sensor_id;sensor_type;location;lat;lon;timestamp;P1;durP1;ratioP1;P2;durP2;ratioP2
34035;SDS011;63481;52.588;22.472;2023-11-19T00:01:25;11.50;;;6.00;;
34035;SDS011;63481;52.588;22.472;2023-11-19T00:06:27;11.00;;;4.80;;
34035;SDS011;63481;52.588;22.472;2023-11-19T00:11:30;8.90;;;4.40;;
34035;SDS011;63481;52.588;22.472;2023-11-19T00:16:31;13.60;;;6.90;;
34035;SDS011;63481;52.588;22.472;2023-11-19T00:21:33;16.20;;;8.10;;
34035;SDS011;63481;52.588;22.472;2023-11-19T00:26:35;14.30;;;5.70;;
34035;SDS011;63481;52.588;22.472;2023-11-19T00:31:38;13.70;;;4.60;;
34035;SDS011;63481;52.588;22.472;2023-11-19T00:36:40;10.20;;;4.30;;
34035;SDS011;63481;52.588;22.472;2023-11-19T00:41:42;5.10;;;3.40;;
34035;SDS011;63481;52.588;22.472;2023-11-19T00:46:44;11.50;;;5.80;;
34035;SDS011;63481;52.588;22.472;2023-11-19T00:51:46;8.90;;;4.30;;
34035;SDS011;63481;52.588;22.472;2023-11-19T00:56:48;9.50;;;4.80;;
34035;SDS011;63481;52.588;22.472;2023-11-19T01:01:50;10.70;;;6.00;;
34035;SDS011;63481;52.588;22.472;2023-11-19T01:06:55;9.30;;;4.30;;
34035;SDS011;63481;52.588;22.472;2023-11-19T01:11:57;10.10;;;5.00;;
34035;SDS011;63481;52.588;22.472;2023-11-19T01:17:00;11.10;;;5.70;;
34035;SDS011;63481;52.588;22.472;2023-11-19T01:22:02;10.50;;;4.40;;
34035;SDS011;63481;52.588;22.472;2023-11-19T01:27:04;11.20;;;5.30;;
34035;SDS011;63481;52.588;22.472;2023-11-19T01:32:06;6.40;;;3.70;;
34035;SDS011;63481;52.588;22.472;2023-11-19T01:37:08;7.90;;;4.40;;
34035;SDS011;63481;52.588;22.472;2023-11-19T01:42:15;5.70;;;3.20;;
34035;SDS011;63481;52.588;22.472;2023-11-19T01:47:17;9.50;;;4.70;;
34035;SDS011;63481;52.588;22.472;2023-11-19T01:52:21;12.40;;;5.90;;
34035;SDS011;63481;52.588;22.472;2023-11-19T01:57:24;7.30;;;3.20;;
34035;SDS011;63481;52.588;22.472;2023-11-19T02:02:26;8.30;;;4.20;;
34035;SDS011;63481;52.588;22.472;2023-11-19T02:07:28;8.10;;;3.80;;
34035;SDS011;63481;52.588;22.472;2023-11-19T02:12:31;6.50;;;3.50;;
34035;SDS011;63481;52.588;22.472;2023-11-19T02:17:37;11.50;;;4.20;;
34035;SDS011;63481;52.588;22.472;2023-11-19T02:22:39;10.30;;;4.30;;
34035;SDS011;63481;52.588;22.472;2023-11-19T02:32:57;9.40;;;3.70;;
34035;SDS011;63481;52.588;22.472;2023-11-19T02:38:00;11.20;;;5.30;;
34035;SDS011;63481;52.588;22.472;2023-11-19T02:43:03;9.30;;;4.30;;
34035;SDS011;63481;52.588;22.472;2023-11-19T02:48:06;8.10;;;3.70;;
34035;SDS011;63481;52.588;22.472;2023-11-19T02:53:09;6.50;;;3.30;;
34035;SDS011;63481;52.588;22.472;2023-11-19T02:58:11;22.90;;;7.40;;
34035;SDS011;63481;52.588;22.472;2023-11-19T03:03:22;15.10;;;5.50;;
34035;SDS011;63481;52.588;22.472;2023-11-19T03:08:27;10.90;;;5.50;;
34035;SDS011;63481;52.588;22.472;2023-11-19T03:13:29;9.40;;;3.60;;
34035;SDS011;63481;52.588;22.472;2023-11-19T03:27:28;5.70;;;3.00;;
34035;SDS011;63481;52.588;22.472;2023-11-19T03:32:32;15.20;;;4.30;;
34035;SDS011;63481;52.588;22.472;2023-11-19T03:37:37;8.30;;;4.50;;
34035;SDS011;63481;52.588;22.472;2023-11-19T03:42:39;13.00;;;4.70;;
34035;SDS011;63481;52.588;22.472;2023-11-19T03:47:42;7.20;;;3.70;;
34035;SDS011;63481;52.588;22.472;2023-11-19T03:52:44;6.10;;;4.00;;
34035;SDS011;63481;52.588;22.472;2023-11-19T03:57:46;7.50;;;3.40;;
34035;SDS011;63481;52.588;22.472;2023-11-19T04:07:52;5.80;;;3.60;;
34035;SDS011;63481;52.588;22.472;2023-11-19T04:12:54;7.00;;;3.80;;
34035;SDS011;63481;52.588;22.472;2023-11-19T04:17:56;8.20;;;4.40;;
34035;SDS011;63481;52.588;22.472;2023-11-19T04:22:58;8.60;;;4.60;;
34035;SDS011;63481;52.588;22.472;2023-11-19T04:28:02;16.20;;;5.40;;
34035;SDS011;63481;52.588;22.472;2023-11-19T04:33:04;12.10;;;6.30;;
34035;SDS011;63481;52.588;22.472;2023-11-19T04:38:07;5.40;;;3.40;;
34035;SDS011;63481;52.588;22.472;2023-11-19T04:43:09;15.20;;;5.90;;
34035;SDS011;63481;52.588;22.472;2023-11-19T04:48:12;10.60;;;4.70;;
34035;SDS011;63481;52.588;22.472;2023-11-19T04:53:14;12.70;;;5.20;;
34035;SDS011;63481;52.588;22.472;2023-11-19T04:58:17;11.60;;;4.60;;
34035;SDS011;63481;52.588;22.472;2023-11-19T05:03:19;15.20;;;5.50;;
34035;SDS011;63481;52.588;22.472;2023-11-19T05:08:21;14.30;;;5.00;;
34035;SDS011;63481;52.588;22.472;2023-11-19T05:13:23;12.50;;;5.00;;
34035;SDS011;63481;52.588;22.472;2023-11-19T05:18:25;13.00;;;5.00;;
34035;SDS011;63481;52.588;22.472;2023-11-19T05:23:28;13.50;;;5.10;;
34035;SDS011;63481;52.588;22.472;2023-11-19T05:28:30;11.10;;;4.60;;
34035;SDS011;63481;52.588;22.472;2023-11-19T05:33:32;14.40;;;5.50;;
34035;SDS011;63481;52.588;22.472;2023-11-19T05:38:35;11.90;;;4.40;;
34035;SDS011;63481;52.588;22.472;2023-11-19T05:43:38;18.80;;;5.30;;
34035;SDS011;63481;52.588;22.472;2023-11-19T05:48:42;12.20;;;5.40;;
34035;SDS011;63481;52.588;22.472;2023-11-19T05:53:44;9.90;;;5.50;;
34035;SDS011;63481;52.588;22.472;2023-11-19T06:03:48;10.50;;;5.60;;
34035;SDS011;63481;52.588;22.472;2023-11-19T06:08:52;12.40;;;5.40;;
34035;SDS011;63481;52.588;22.472;2023-11-19T06:13:54;12.60;;;4.90;;
34035;SDS011;63481;52.588;22.472;2023-11-19T06:18:56;13.80;;;5.50;;
34035;SDS011;63481;52.588;22.472;2023-11-19T06:23:58;10.80;;;5.40;;
34035;SDS011;63481;52.588;22.472;2023-11-19T06:29:01;6.70;;;3.40;;
34035;SDS011;63481;52.588;22.472;2023-11-19T06:34:03;9.30;;;4.80;;
34035;SDS011;63481;52.588;22.472;2023-11-19T06:39:05;13.70;;;5.10;;
34035;SDS011;63481;52.588;22.472;2023-11-19T06:44:07;12.80;;;4.70;;
34035;SDS011;63481;52.588;22.472;2023-11-19T06:51:04;12.40;;;4.50;;
34035;SDS011;63481;52.588;22.472;2023-11-19T06:56:28;10.70;;;5.40;;
34035;SDS011;63481;52.588;22.472;2023-11-19T07:01:33;12.70;;;5.70;;
34035;SDS011;63481;52.588;22.472;2023-11-19T07:06:37;9.70;;;4.10;;
34035;SDS011;63481;52.588;22.472;2023-11-19T07:11:42;10.70;;;4.80;;
34035;SDS011;63481;52.588;22.472;2023-11-19T07:16:45;10.20;;;4.90;;
34035;SDS011;63481;52.588;22.472;2023-11-19T07:21:47;10.40;;;4.50;;
34035;SDS011;63481;52.588;22.472;2023-11-19T07:26:49;9.10;;;4.50;;
34035;SDS011;63481;52.588;22.472;2023-11-19T07:31:52;12.10;;;5.40;;
34035;SDS011;63481;52.588;22.472;2023-11-19T07:36:54;6.80;;;3.90;;
34035;SDS011;63481;52.588;22.472;2023-11-19T07:41:56;15.90;;;5.20;;
34035;SDS011;63481;52.588;22.472;2023-11-19T07:46:58;12.10;;;4.50;;
34035;SDS011;63481;52.588;22.472;2023-11-19T07:52:00;7.80;;;3.50;;
34035;SDS011;63481;52.588;22.472;2023-11-19T07:57:04;12.30;;;4.90;;
34035;SDS011;63481;52.588;22.472;2023-11-19T08:02:06;13.50;;;5.50;;
34035;SDS011;63481;52.588;22.472;2023-11-19T08:07:08;14.60;;;5.60;;
34035;SDS011;63481;52.588;22.472;2023-11-19T08:12:10;14.30;;;6.60;;
34035;SDS011;63481;52.588;22.472;2023-11-19T08:17:12;11.40;;;4.70;;
34035;SDS011;63481;52.588;22.472;2023-11-19T08:22:15;10.20;;;5.10;;
34035;SDS011;63481;52.588;22.472;2023-11-19T08:27:18;11.10;;;4.30;;
34035;SDS011;63481;52.588;22.472;2023-11-19T08:32:20;8.30;;;4.30;;
34035;SDS011;63481;52.588;22.472;2023-11-19T08:37:22;11.40;;;4.90;;
34035;SDS011;63481;52.588;22.472;2023-11-19T08:42:24;11.80;;;5.00;;
34035;SDS011;63481;52.588;22.472;2023-11-19T08:47:27;9.70;;;5.10;;
34035;SDS011;63481;52.588;22.472;2023-11-19T08:52:29;11.30;;;3.90;;
34035;SDS011;63481;52.588;22.472;2023-11-19T08:57:31;10.00;;;4.80;;
34035;SDS011;63481;52.588;22.472;2023-11-19T09:02:37;11.50;;;5.50;;
34035;SDS011;63481;52.588;22.472;2023-11-19T09:07:39;11.50;;;5.80;;
34035;SDS011;63481;52.588;22.472;2023-11-19T09:12:41;13.40;;;5.00;;
34035;SDS011;63481;52.588;22.472;2023-11-19T09:17:44;14.00;;;5.40;;
34035;SDS011;63481;52.588;22.472;2023-11-19T09:22:47;12.60;;;6.20;;
34035;SDS011;63481;52.588;22.472;2023-11-19T09:27:49;14.30;;;6.20;;
34035;SDS011;63481;52.588;22.472;2023-11-19T09:32:51;14.80;;;4.90;;
34035;SDS011;63481;52.588;22.472;2023-11-19T09:37:53;15.40;;;5.40;;
34035;SDS011;63481;52.588;22.472;2023-11-19T09:42:55;11.80;;;5.10;;
34035;SDS011;63481;52.588;22.472;2023-11-19T09:47:58;12.70;;;5.10;;
34035;SDS011;63481;52.588;22.472;2023-11-19T09:53:02;15.10;;;5.70;;
34035;SDS011;63481;52.588;22.472;2023-11-19T09:58:04;13.30;;;5.10;;
34035;SDS011;63481;52.588;22.472;2023-11-19T10:03:08;14.20;;;5.90;;
34035;SDS011;63481;52.588;22.472;2023-11-19T10:08:14;12.40;;;5.50;;
34035;SDS011;63481;52.588;22.472;2023-11-19T10:13:16;11.10;;;5.00;;
34035;SDS011;63481;52.588;22.472;2023-11-19T10:18:18;12.10;;;4.50;;
34035;SDS011;63481;52.588;22.472;2023-11-19T10:23:25;16.60;;;5.10;;
34035;SDS011;63481;52.588;22.472;2023-11-19T10:28:27;16.80;;;6.40;;
34035;SDS011;63481;52.588;22.472;2023-11-19T10:33:29;10.80;;;3.50;;
34035;SDS011;63481;52.588;22.472;2023-11-19T10:38:32;11.60;;;4.50;;
34035;SDS011;63481;52.588;22.472;2023-11-19T10:43:44;10.00;;;5.20;;
34035;SDS011;63481;52.588;22.472;2023-11-19T10:48:46;16.60;;;5.70;;
34035;SDS011;63481;52.588;22.472;2023-11-19T10:53:49;8.60;;;4.10;;
34035;SDS011;63481;52.588;22.472;2023-11-19T10:58:52;10.20;;;4.80;;
34035;SDS011;63481;52.588;22.472;2023-11-19T11:03:56;11.40;;;4.90;;
34035;SDS011;63481;52.588;22.472;2023-11-19T11:09:02;10.90;;;4.70;;
34035;SDS011;63481;52.588;22.472;2023-11-19T11:14:04;11.20;;;3.90;;
34035;SDS011;63481;52.588;22.472;2023-11-19T11:19:07;11.10;;;4.10;;
34035;SDS011;63481;52.588;22.472;2023-11-19T11:24:17;9.50;;;3.80;;
34035;SDS011;63481;52.588;22.472;2023-11-19T11:35:08;15.30;;;6.20;;
34035;SDS011;63481;52.588;22.472;2023-11-19T11:40:20;18.60;;;6.20;;
34035;SDS011;63481;52.588;22.472;2023-11-19T11:45:38;11.70;;;5.20;;
34035;SDS011;63481;52.588;22.472;2023-11-19T11:50:47;14.00;;;5.00;;
34035;SDS011;63481;52.588;22.472;2023-11-19T11:55:52;12.10;;;6.60;;
34035;SDS011;63481;52.588;22.472;2023-11-19T12:01:01;14.00;;;6.20;;
34035;SDS011;63481;52.588;22.472;2023-11-19T12:06:04;8.90;;;4.90;;
34035;SDS011;63481;52.588;22.472;2023-11-19T12:11:06;15.50;;;6.60;;
34035;SDS011;63481;52.588;22.472;2023-11-19T12:16:10;10.70;;;5.30;;
34035;SDS011;63481;52.588;22.472;2023-11-19T12:21:27;10.50;;;5.50;;
34035;SDS011;63481;52.588;22.472;2023-11-19T12:26:32;18.20;;;7.50;;
34035;SDS011;63481;52.588;22.472;2023-11-19T12:31:36;13.70;;;6.80;;
34035;SDS011;63481;52.588;22.472;2023-11-19T12:36:38;9.30;;;4.70;;
34035;SDS011;63481;52.588;22.472;2023-11-19T12:41:51;9.50;;;4.50;;
34035;SDS011;63481;52.588;22.472;2023-11-19T12:47:01;11.20;;;5.20;;
34035;SDS011;63481;52.588;22.472;2023-11-19T12:52:11;16.90;;;6.80;;
34035;SDS011;63481;52.588;22.472;2023-11-19T12:57:14;8.20;;;4.40;;
34035;SDS011;63481;52.588;22.472;2023-11-19T13:02:17;11.90;;;5.10;;
34035;SDS011;63481;52.588;22.472;2023-11-19T13:07:22;12.90;;;6.30;;
34035;SDS011;63481;52.588;22.472;2023-11-19T13:12:24;11.20;;;5.70;;
34035;SDS011;63481;52.588;22.472;2023-11-19T13:17:26;12.60;;;6.20;;
34035;SDS011;63481;52.588;22.472;2023-11-19T13:22:29;10.90;;;5.10;;
34035;SDS011;63481;52.588;22.472;2023-11-19T13:27:32;10.70;;;4.70;;
34035;SDS011;63481;52.588;22.472;2023-11-19T13:32:34;11.10;;;5.60;;
34035;SDS011;63481;52.588;22.472;2023-11-19T13:37:36;11.40;;;5.90;;
34035;SDS011;63481;52.588;22.472;2023-11-19T13:42:39;11.60;;;6.10;;
34035;SDS011;63481;52.588;22.472;2023-11-19T13:47:43;8.00;;;4.60;;
34035;SDS011;63481;52.588;22.472;2023-11-19T13:52:46;13.90;;;5.40;;
34035;SDS011;63481;52.588;22.472;2023-11-19T13:57:49;10.60;;;5.60;;
34035;SDS011;63481;52.588;22.472;2023-11-19T14:02:51;9.30;;;4.80;;
34035;SDS011;63481;52.588;22.472;2023-11-19T14:07:53;9.20;;;5.50;;
34035;SDS011;63481;52.588;22.472;2023-11-19T14:12:58;8.50;;;4.90;;
34035;SDS011;63481;52.588;22.472;2023-11-19T14:18:00;12.30;;;5.20;;
34035;SDS011;63481;52.588;22.472;2023-11-19T14:23:02;8.10;;;3.80;;
34035;SDS011;63481;52.588;22.472;2023-11-19T14:28:04;15.60;;;5.00;;
34035;SDS011;63481;52.588;22.472;2023-11-19T14:33:07;9.90;;;5.20;;
34035;SDS011;63481;52.588;22.472;2023-11-19T14:38:09;12.50;;;5.80;;
34035;SDS011;63481;52.588;22.472;2023-11-19T14:43:11;9.30;;;4.20;;
34035;SDS011;63481;52.588;22.472;2023-11-19T14:48:13;13.60;;;7.00;;
34035;SDS011;63481;52.588;22.472;2023-11-19T14:53:16;9.00;;;5.00;;
34035;SDS011;63481;52.588;22.472;2023-11-19T14:58:18;15.60;;;6.80;;
34035;SDS011;63481;52.588;22.472;2023-11-19T15:03:20;13.40;;;6.50;;
34035;SDS011;63481;52.588;22.472;2023-11-19T15:08:24;27.00;;;8.00;;
34035;SDS011;63481;52.588;22.472;2023-11-19T15:13:26;13.50;;;6.30;;
34035;SDS011;63481;52.588;22.472;2023-11-19T15:18:28;18.80;;;7.40;;
34035;SDS011;63481;52.588;22.472;2023-11-19T15:23:30;19.10;;;8.00;;
34035;SDS011;63481;52.588;22.472;2023-11-19T15:28:32;16.00;;;6.00;;
34035;SDS011;63481;52.588;22.472;2023-11-19T15:33:34;52.60;;;19.20;;
34035;SDS011;63481;52.588;22.472;2023-11-19T15:38:36;19.70;;;7.40;;
34035;SDS011;63481;52.588;22.472;2023-11-19T15:43:38;20.00;;;9.40;;
34035;SDS011;63481;52.588;22.472;2023-11-19T15:48:40;15.50;;;6.90;;
34035;SDS011;63481;52.588;22.472;2023-11-19T15:53:42;20.50;;;9.40;;
34035;SDS011;63481;52.588;22.472;2023-11-19T15:58:45;23.50;;;10.50;;
34035;SDS011;63481;52.588;22.472;2023-11-19T16:03:47;23.70;;;12.20;;
34035;SDS011;63481;52.588;22.472;2023-11-19T16:08:49;16.20;;;7.30;;
34035;SDS011;63481;52.588;22.472;2023-11-19T16:13:52;41.00;;;20.10;;
34035;SDS011;63481;52.588;22.472;2023-11-19T16:18:54;38.40;;;18.00;;
34035;SDS011;63481;52.588;22.472;2023-11-19T16:23:56;43.00;;;20.30;;
34035;SDS011;63481;52.588;22.472;2023-11-19T16:28:59;31.50;;;15.30;;
34035;SDS011;63481;52.588;22.472;2023-11-19T16:34:01;60.00;;;30.10;;
34035;SDS011;63481;52.588;22.472;2023-11-19T16:39:03;39.10;;;22.70;;
34035;SDS011;63481;52.588;22.472;2023-11-19T16:44:05;22.40;;;12.00;;
34035;SDS011;63481;52.588;22.472;2023-11-19T16:49:09;28.20;;;14.70;;
34035;SDS011;63481;52.588;22.472;2023-11-19T16:54:11;23.30;;;14.30;;
34035;SDS011;63481;52.588;22.472;2023-11-19T16:59:14;25.20;;;14.50;;
34035;SDS011;63481;52.588;22.472;2023-11-19T17:04:16;34.30;;;17.90;;
34035;SDS011;63481;52.588;22.472;2023-11-19T17:09:19;27.40;;;14.60;;
34035;SDS011;63481;52.588;22.472;2023-11-19T17:14:21;27.20;;;17.40;;
34035;SDS011;63481;52.588;22.472;2023-11-19T17:19:23;25.50;;;13.30;;
34035;SDS011;63481;52.588;22.472;2023-11-19T17:24:25;24.10;;;12.80;;
34035;SDS011;63481;52.588;22.472;2023-11-19T17:29:27;40.60;;;19.40;;
34035;SDS011;63481;52.588;22.472;2023-11-19T17:34:29;22.20;;;12.60;;
34035;SDS011;63481;52.588;22.472;2023-11-19T17:39:31;20.90;;;8.80;;
34035;SDS011;63481;52.588;22.472;2023-11-19T17:44:34;19.90;;;8.20;;
34035;SDS011;63481;52.588;22.472;2023-11-19T17:49:36;20.10;;;9.80;;
34035;SDS011;63481;52.588;22.472;2023-11-19T17:54:41;14.90;;;7.90;;
34035;SDS011;63481;52.588;22.472;2023-11-19T17:59:43;16.70;;;8.40;;
34035;SDS011;63481;52.588;22.472;2023-11-19T18:04:46;22.80;;;8.80;;
34035;SDS011;63481;52.588;22.472;2023-11-19T18:09:50;14.70;;;7.10;;
34035;SDS011;63481;52.588;22.472;2023-11-19T18:14:52;21.50;;;7.30;;
34035;SDS011;63481;52.588;22.472;2023-11-19T18:19:55;13.70;;;6.50;;
34035;SDS011;63481;52.588;22.472;2023-11-19T18:24:57;18.50;;;7.20;;
34035;SDS011;63481;52.588;22.472;2023-11-19T18:30:00;12.70;;;5.90;;
34035;SDS011;63481;52.588;22.472;2023-11-19T18:35:03;11.00;;;5.50;;
34035;SDS011;63481;52.588;22.472;2023-11-19T18:40:07;11.80;;;5.60;;
34035;SDS011;63481;52.588;22.472;2023-11-19T18:45:13;13.70;;;8.00;;
34035;SDS011;63481;52.588;22.472;2023-11-19T18:50:19;15.60;;;6.40;;
34035;SDS011;63481;52.588;22.472;2023-11-19T18:55:22;9.50;;;5.60;;
34035;SDS011;63481;52.588;22.472;2023-11-19T19:00:24;6.30;;;3.90;;
34035;SDS011;63481;52.588;22.472;2023-11-19T19:05:27;11.80;;;5.70;;
34035;SDS011;63481;52.588;22.472;2023-11-19T19:10:29;14.90;;;6.60;;
34035;SDS011;63481;52.588;22.472;2023-11-19T19:15:31;12.80;;;5.80;;
34035;SDS011;63481;52.588;22.472;2023-11-19T19:20:33;12.70;;;5.90;;
34035;SDS011;63481;52.588;22.472;2023-11-19T19:25:35;8.90;;;4.70;;
34035;SDS011;63481;52.588;22.472;2023-11-19T19:30:38;14.50;;;6.00;;
34035;SDS011;63481;52.588;22.472;2023-11-19T19:35:40;16.30;;;6.60;;
34035;SDS011;63481;52.588;22.472;2023-11-19T19:40:42;12.50;;;5.50;;
34035;SDS011;63481;52.588;22.472;2023-11-19T19:45:44;12.60;;;6.20;;
34035;SDS011;63481;52.588;22.472;2023-11-19T19:50:46;18.60;;;6.50;;
34035;SDS011;63481;52.588;22.472;2023-11-19T19:55:48;16.10;;;8.00;;
34035;SDS011;63481;52.588;22.472;2023-11-19T20:00:51;11.90;;;5.20;;
34035;SDS011;63481;52.588;22.472;2023-11-19T20:05:57;23.90;;;11.20;;
34035;SDS011;63481;52.588;22.472;2023-11-19T20:10:59;25.60;;;11.70;;
34035;SDS011;63481;52.588;22.472;2023-11-19T20:16:03;43.70;;;19.40;;
34035;SDS011;63481;52.588;22.472;2023-11-19T20:21:05;40.30;;;17.30;;
34035;SDS011;63481;52.588;22.472;2023-11-19T20:26:10;26.80;;;13.40;;
34035;SDS011;63481;52.588;22.472;2023-11-19T20:31:19;22.30;;;11.40;;
34035;SDS011;63481;52.588;22.472;2023-11-19T20:36:21;10.60;;;4.90;;
34035;SDS011;63481;52.588;22.472;2023-11-19T20:41:23;11.30;;;5.60;;
34035;SDS011;63481;52.588;22.472;2023-11-19T20:46:26;11.60;;;5.70;;
34035;SDS011;63481;52.588;22.472;2023-11-19T20:51:28;13.20;;;4.80;;
34035;SDS011;63481;52.588;22.472;2023-11-19T20:56:31;6.70;;;4.80;;
34035;SDS011;63481;52.588;22.472;2023-11-19T21:01:33;6.00;;;3.70;;
34035;SDS011;63481;52.588;22.472;2023-11-19T21:06:35;9.80;;;5.00;;
34035;SDS011;63481;52.588;22.472;2023-11-19T21:11:38;15.60;;;7.70;;
34035;SDS011;63481;52.588;22.472;2023-11-19T21:16:40;10.40;;;5.40;;
34035;SDS011;63481;52.588;22.472;2023-11-19T21:21:42;10.00;;;5.40;;
34035;SDS011;63481;52.588;22.472;2023-11-19T21:26:45;10.50;;;5.60;;
34035;SDS011;63481;52.588;22.472;2023-11-19T21:31:47;7.20;;;4.50;;
34035;SDS011;63481;52.588;22.472;2023-11-19T21:36:50;10.40;;;5.80;;
34035;SDS011;63481;52.588;22.472;2023-11-19T21:41:52;13.00;;;6.20;;
34035;SDS011;63481;52.588;22.472;2023-11-19T21:46:56;7.50;;;5.00;;
34035;SDS011;63481;52.588;22.472;2023-11-19T21:51:58;9.40;;;5.30;;
34035;SDS011;63481;52.588;22.472;2023-11-19T21:57:00;11.70;;;6.20;;
34035;SDS011;63481;52.588;22.472;2023-11-19T22:02:04;9.60;;;4.10;;
34035;SDS011;63481;52.588;22.472;2023-11-19T22:07:06;9.90;;;4.10;;
34035;SDS011;63481;52.588;22.472;2023-11-19T22:12:09;8.80;;;5.00;;
34035;SDS011;63481;52.588;22.472;2023-11-19T22:17:12;6.80;;;4.00;;
34035;SDS011;63481;52.588;22.472;2023-11-19T22:22:14;9.10;;;4.00;;
34035;SDS011;63481;52.588;22.472;2023-11-19T22:27:16;12.00;;;6.70;;
34035;SDS011;63481;52.588;22.472;2023-11-19T22:32:18;14.00;;;5.20;;
34035;SDS011;63481;52.588;22.472;2023-11-19T22:37:20;15.70;;;8.50;;
34035;SDS011;63481;52.588;22.472;2023-11-19T22:42:22;8.60;;;5.60;;
34035;SDS011;63481;52.588;22.472;2023-11-19T22:47:24;13.80;;;7.50;;
34035;SDS011;63481;52.588;22.472;2023-11-19T22:52:26;7.70;;;4.70;;
34035;SDS011;63481;52.588;22.472;2023-11-19T22:57:29;17.40;;;10.70;;
34035;SDS011;63481;52.588;22.472;2023-11-19T23:02:31;14.90;;;7.60;;
34035;SDS011;63481;52.588;22.472;2023-11-19T23:07:33;8.90;;;5.60;;
34035;SDS011;63481;52.588;22.472;2023-11-19T23:12:35;13.30;;;7.20;;
34035;SDS011;63481;52.588;22.472;2023-11-19T23:17:37;10.90;;;7.00;;
34035;SDS011;63481;52.588;22.472;2023-11-19T23:22:40;10.80;;;6.10;;
34035;SDS011;63481;52.588;22.472;2023-11-19T23:27:42;12.10;;;4.70;;
34035;SDS011;63481;52.588;22.472;2023-11-19T23:32:44;7.60;;;4.20;;
34035;SDS011;63481;52.588;22.472;2023-11-19T23:37:47;8.10;;;4.80;;
34035;SDS011;63481;52.588;22.472;2023-11-19T23:42:49;7.30;;;4.90;;
34035;SDS011;63481;52.588;22.472;2023-11-19T23:47:51;9.70;;;5.00;;
34035;SDS011;63481;52.588;22.472;2023-11-19T23:52:53;10.10;;;5.00;;
34035;SDS011;63481;52.588;22.472;2023-11-19T23:57:56;7.30;;;4.30;;
